createdAt,value
2019-02-18T00:00:26.603Z,76.48
2019-02-18T00:02:54.734Z,76.61
2019-02-18T00:05:23.344Z,76.70
2019-02-18T00:07:51.477Z,76.78
2019-02-18T00:10:19.292Z,76.86
2019-02-18T00:12:47.280Z,77.02
2019-02-18T00:15:15.452Z,77.07
2019-02-18T00:17:43.856Z,77.25
2019-02-18T00:20:12.025Z,77.62
2019-02-18T00:22:40.293Z,78.26
2019-02-18T00:25:08.054Z,78.68
2019-02-18T00:27:35.948Z,79.20
2019-02-18T00:30:04.323Z,80.03
2019-02-18T00:32:32.113Z,80.76
2019-02-18T00:34:59.851Z,81.30
2019-02-18T00:37:28.241Z,81.75
2019-02-18T00:39:56.094Z,82.13
2019-02-18T00:42:24.123Z,82.12
2019-02-18T00:44:52.072Z,82.34
2019-02-18T00:47:20.157Z,82.83
2019-02-18T00:49:48.148Z,83.06
2019-02-18T00:52:16.314Z,83.00
2019-02-18T00:54:44.356Z,82.92
2019-02-18T00:57:12.457Z,82.75
2019-02-18T00:59:40.979Z,82.49
2019-02-18T01:02:09.199Z,82.28
2019-02-18T01:04:37.288Z,82.12
2019-02-18T01:07:05.870Z,82.09
2019-02-18T01:09:34.000Z,82.01
2019-02-18T01:12:02.219Z,82.33
2019-02-18T01:14:30.581Z,82.48
2019-02-18T01:16:58.650Z,82.66
2019-02-18T01:19:26.751Z,82.81
2019-02-18T01:21:55.444Z,83.08
2019-02-18T01:24:23.684Z,83.42
2019-02-18T01:26:51.764Z,83.54
2019-02-18T01:29:20.138Z,83.77
2019-02-18T01:31:48.127Z,83.86
2019-02-18T01:34:16.284Z,83.88
2019-02-18T01:36:44.416Z,83.71
2019-02-18T01:39:12.272Z,83.76
2019-02-18T01:41:40.244Z,83.90
2019-02-18T01:44:08.795Z,84.18
2019-02-18T01:46:36.600Z,84.52
2019-02-18T01:49:04.565Z,84.90
2019-02-18T01:51:33.056Z,85.06
2019-02-18T01:54:01.139Z,85.25
2019-02-18T01:56:29.023Z,85.74
2019-02-18T01:58:57.479Z,86.30
2019-02-18T02:01:25.561Z,86.35
2019-02-18T02:03:53.642Z,86.25
2019-02-18T02:06:21.903Z,86.31
2019-02-18T02:08:49.982Z,86.29
2019-02-18T02:11:18.727Z,86.27
2019-02-18T02:13:47.735Z,86.27
2019-02-18T02:16:16.442Z,86.38
2019-02-18T02:18:44.473Z,86.58
2019-02-18T02:21:13.195Z,86.88
2019-02-18T02:23:41.506Z,86.84
2019-02-18T02:26:09.518Z,86.71
2019-02-18T02:28:37.870Z,86.67
2019-02-18T02:31:05.908Z,86.70
2019-02-18T02:33:34.153Z,86.76
2019-02-18T02:36:02.650Z,86.83
2019-02-18T02:38:30.833Z,86.94
2019-02-18T02:40:58.674Z,86.86
2019-02-18T02:43:27.087Z,86.86
2019-02-18T02:45:55.273Z,87.12
2019-02-18T02:48:23.189Z,87.29
2019-02-18T02:50:51.540Z,87.49
2019-02-18T02:53:19.589Z,88.30
2019-02-18T02:55:48.129Z,89.22
2019-02-18T02:58:16.746Z,89.76
2019-02-18T03:00:45.138Z,90.02
2019-02-18T03:03:13.534Z,89.76
2019-02-18T03:05:41.542Z,89.44
2019-02-18T03:08:19.858Z,89.28
2019-02-18T03:10:38.519Z,89.72
2019-02-18T03:13:06.576Z,90.41
2019-02-18T03:15:34.700Z,91.17
2019-02-18T03:18:03.034Z,91.52
2019-02-18T03:20:30.998Z,91.46
2019-02-18T03:22:59.227Z,91.77
2019-02-18T03:25:28.413Z,92.01
2019-02-18T03:28:12.508Z,91.96
2019-02-18T03:30:45.554Z,91.63
2019-02-18T03:33:16.144Z,91.11
2019-02-18T03:35:44.127Z,90.76
2019-02-18T03:38:12.387Z,90.52
2019-02-18T03:40:40.243Z,90.38
2019-02-18T03:43:08.308Z,90.37
2019-02-18T03:45:36.218Z,90.37
2019-02-18T03:48:04.299Z,90.30
2019-02-18T03:50:32.620Z,90.18
2019-02-18T03:53:00.431Z,90.08
2019-02-18T03:55:28.718Z,89.94
2019-02-18T03:57:57.148Z,89.89
2019-02-18T04:00:25.951Z,89.70
2019-02-18T04:02:54.139Z,89.72
2019-02-18T04:05:22.158Z,89.91
2019-02-18T04:07:49.980Z,90.06
2019-02-18T04:10:18.087Z,90.13
2019-02-18T04:12:46.477Z,90.28
2019-02-18T04:15:14.602Z,90.33
2019-02-18T04:17:43.970Z,90.30
2019-02-18T04:20:12.165Z,90.24
2019-02-18T04:22:40.283Z,90.24
2019-02-18T04:25:08.263Z,90.21
2019-02-18T04:27:36.447Z,90.39
2019-02-18T04:30:04.715Z,90.57
2019-02-18T04:32:32.668Z,90.81
2019-02-18T04:35:00.864Z,90.89
2019-02-18T04:37:28.629Z,91.23
2019-02-18T04:39:56.839Z,91.47
2019-02-18T04:42:25.106Z,91.60
2019-02-18T04:44:53.171Z,91.62
2019-02-18T04:47:20.913Z,91.58
2019-02-18T04:49:49.049Z,91.55
2019-02-18T04:52:17.061Z,91.44
2019-02-18T04:54:45.181Z,91.40
2019-02-18T04:57:13.710Z,91.52
2019-02-18T04:59:41.779Z,91.57
2019-02-18T05:02:09.553Z,91.60
2019-02-18T05:04:38.232Z,91.66
2019-02-18T05:07:06.549Z,91.76
2019-02-18T05:09:34.786Z,91.74
2019-02-18T05:12:03.376Z,91.68
2019-02-18T05:14:31.394Z,91.66
2019-02-18T05:16:59.344Z,91.62
2019-02-18T05:19:28.378Z,91.68
2019-02-18T05:21:57.507Z,91.74
2019-02-18T05:24:26.664Z,91.79
2019-02-18T05:26:55.864Z,92.09
2019-02-18T05:29:24.302Z,92.37
2019-02-18T05:31:52.205Z,92.73
2019-02-18T05:34:20.022Z,93.21
2019-02-18T05:36:48.017Z,93.49
2019-02-18T05:39:18.348Z,93.43
2019-02-18T05:41:44.677Z,93.24
2019-02-18T05:44:12.721Z,92.91
2019-02-18T05:46:40.912Z,93.24
2019-02-18T05:49:09.711Z,93.30
2019-02-18T05:51:38.317Z,93.23
2019-02-18T05:54:06.700Z,93.20
2019-02-18T05:56:35.110Z,93.14
2019-02-18T05:59:03.412Z,93.14
2019-02-18T06:01:31.655Z,93.09
2019-02-18T06:04:00.258Z,93.26
2019-02-18T06:06:30.151Z,93.52
2019-02-18T06:08:58.261Z,94.22
2019-02-18T06:11:26.893Z,95.22
2019-02-18T06:13:56.521Z,95.35
2019-02-18T06:16:24.549Z,95.19
2019-02-18T06:18:52.934Z,95.19
2019-02-18T06:21:20.969Z,95.00
2019-02-18T06:23:48.744Z,95.27
2019-02-18T06:26:16.864Z,95.37
2019-02-18T06:28:44.818Z,95.38
2019-02-18T06:31:12.825Z,95.33
2019-02-18T06:33:40.917Z,95.17
2019-02-18T06:36:11.614Z,94.86
2019-02-18T06:38:42.634Z,94.86
2019-02-18T06:41:12.545Z,94.97
2019-02-18T06:43:40.638Z,95.12
2019-02-18T06:46:13.064Z,95.22
2019-02-18T06:48:47.350Z,95.54
2019-02-18T06:51:17.055Z,95.70
2019-02-18T06:53:43.354Z,95.52
2019-02-18T06:56:11.649Z,95.90
2019-02-18T06:58:45.972Z,95.93
2019-02-18T07:01:35.088Z,95.83
2019-02-18T07:04:13.476Z,95.64
2019-02-18T07:07:21.617Z,95.56
2019-02-18T07:09:53.969Z,95.57
2019-02-18T07:12:26.418Z,95.69
2019-02-18T07:14:54.229Z,95.90
2019-02-18T07:17:22.440Z,96.00
2019-02-18T07:19:50.404Z,96.11
2019-02-18T07:22:18.312Z,95.98
2019-02-18T07:24:46.471Z,96.27
2019-02-18T07:27:14.745Z,96.32
2019-02-18T07:29:42.630Z,96.45
2019-02-18T07:32:10.978Z,96.55
2019-02-18T07:34:38.931Z,96.59
2019-02-18T07:37:06.724Z,96.70
2019-02-18T07:39:35.194Z,96.70
2019-02-18T07:42:03.122Z,96.67
2019-02-18T07:44:31.279Z,96.92
2019-02-18T07:46:59.042Z,97.33
2019-02-18T07:49:26.835Z,97.64
2019-02-18T07:51:54.958Z,98.03
2019-02-18T07:54:22.701Z,98.20
2019-02-18T07:56:50.500Z,98.27
2019-02-18T07:59:19.164Z,98.23
2019-02-18T08:01:47.310Z,98.20
2019-02-18T08:04:15.414Z,98.00
2019-02-18T08:06:43.684Z,97.87
2019-02-18T08:09:11.934Z,97.69
2019-02-18T08:11:40.142Z,97.54
2019-02-18T08:14:07.944Z,97.46
2019-02-18T08:16:35.884Z,97.25
2019-02-18T08:19:04.532Z,96.87
2019-02-18T08:21:32.355Z,96.34
2019-02-18T08:24:00.983Z,95.66
2019-02-18T08:26:29.208Z,95.17
2019-02-18T08:28:57.000Z,94.68
2019-02-18T08:31:25.323Z,94.09
2019-02-18T08:33:53.270Z,93.54
2019-02-18T08:36:21.001Z,93.17
2019-02-18T08:38:49.006Z,92.50
2019-02-18T08:41:16.988Z,91.73
2019-02-18T08:43:45.283Z,91.17
2019-02-18T08:46:13.205Z,90.27
2019-02-18T08:48:40.966Z,89.61
2019-02-18T08:51:09.260Z,88.54
2019-02-18T08:53:37.003Z,87.04
2019-02-18T08:56:04.891Z,86.19
2019-02-18T08:58:32.613Z,84.27
2019-02-18T09:01:02.859Z,82.96
2019-02-18T09:03:28.632Z,82.77
2019-02-18T09:05:56.561Z,82.08
2019-02-18T09:08:24.332Z,81.92
2019-02-18T09:10:52.116Z,81.66
2019-02-18T09:13:19.817Z,81.95
2019-02-18T09:15:47.898Z,82.31
2019-02-18T09:18:15.628Z,81.96
2019-02-18T09:20:43.386Z,80.23
2019-02-18T09:23:18.632Z,78.97
2019-02-18T09:25:48.768Z,78.26
2019-02-18T09:28:16.970Z,77.88
2019-02-18T09:30:47.100Z,77.30
2019-02-18T09:33:14.813Z,75.68
2019-02-18T09:35:43.136Z,74.30
2019-02-18T09:38:11.086Z,72.56
2019-02-18T09:40:45.972Z,72.60
2019-02-18T09:43:06.670Z,72.60
2019-02-18T09:45:34.428Z,73.03
2019-02-18T09:48:02.685Z,73.18
2019-02-18T09:50:30.901Z,73.32
2019-02-18T09:52:58.648Z,73.13
2019-02-18T09:55:26.917Z,72.37
2019-02-18T09:57:55.046Z,71.59
2019-02-18T10:00:23.100Z,70.92
2019-02-18T10:02:50.992Z,69.70
2019-02-18T10:05:19.046Z,69.24
2019-02-18T10:07:47.645Z,68.68
2019-02-18T10:10:15.718Z,67.50
2019-02-18T10:12:45.171Z,67.44
2019-02-18T10:15:13.009Z,66.32
2019-02-18T10:17:41.012Z,65.74
2019-02-18T10:20:09.549Z,64.27
2019-02-18T10:22:37.877Z,64.32
2019-02-18T10:25:06.717Z,64.17
2019-02-18T10:27:34.631Z,62.99
2019-02-18T10:30:03.450Z,63.72
2019-02-18T10:32:31.737Z,61.18
2019-02-18T10:34:59.856Z,61.58
2019-02-18T10:37:27.848Z,62.18
2019-02-18T10:39:56.429Z,61.97
2019-02-18T10:42:24.641Z,61.34
2019-02-18T10:44:52.469Z,60.46
2019-02-18T10:47:20.507Z,60.19
2019-02-18T10:49:48.409Z,59.97
2019-02-18T10:52:16.602Z,58.75
2019-02-18T10:54:44.668Z,58.09
2019-02-18T10:57:12.895Z,59.13
2019-02-18T10:59:41.298Z,58.88
2019-02-18T11:02:09.082Z,59.21
2019-02-18T11:04:36.874Z,60.09
2019-02-18T11:07:05.191Z,59.70
2019-02-18T11:09:35.537Z,59.46
2019-02-18T11:12:04.559Z,56.24
2019-02-18T11:14:32.433Z,54.56
2019-02-18T11:17:00.272Z,53.45
2019-02-18T11:19:31.605Z,53.49
2019-02-18T11:21:59.761Z,53.26
2019-02-18T11:24:27.837Z,53.07
2019-02-18T11:26:55.780Z,54.04
2019-02-18T11:29:23.605Z,53.73
2019-02-18T11:31:51.559Z,54.19
2019-02-18T11:34:19.572Z,53.80
2019-02-18T11:36:47.818Z,53.87
2019-02-18T11:39:15.552Z,53.04
2019-02-18T11:41:44.434Z,52.04
2019-02-18T11:44:12.613Z,51.72
2019-02-18T11:46:40.365Z,52.35
2019-02-18T11:49:08.354Z,51.85
2019-02-18T11:51:36.192Z,51.99
2019-02-18T11:54:04.552Z,51.98
2019-02-18T11:56:33.109Z,51.81
2019-02-18T11:59:01.251Z,51.47
2019-02-18T12:01:29.552Z,51.51
2019-02-18T12:03:57.525Z,50.95
2019-02-18T12:06:25.692Z,50.59
2019-02-18T12:08:54.176Z,50.70
2019-02-18T12:11:22.381Z,51.13
2019-02-18T12:13:51.251Z,51.62
2019-02-18T12:16:19.473Z,51.29
2019-02-18T12:18:47.369Z,50.28
2019-02-18T12:21:17.389Z,50.92
2019-02-18T12:23:45.554Z,50.95
2019-02-18T12:26:13.518Z,49.95
2019-02-18T12:28:41.905Z,49.23
2019-02-18T12:31:10.971Z,49.17
2019-02-18T12:33:39.002Z,49.35
2019-02-18T12:36:12.258Z,48.61
2019-02-18T12:38:41.145Z,47.33
2019-02-18T12:41:08.757Z,47.76
2019-02-18T12:43:36.845Z,48.51
2019-02-18T12:46:15.332Z,48.31
2019-02-18T12:48:35.283Z,48.00
2019-02-18T12:51:01.191Z,47.80
2019-02-18T12:53:28.953Z,48.14
2019-02-18T12:55:56.982Z,47.45
2019-02-18T12:58:24.960Z,47.21
2019-02-18T13:00:53.102Z,47.01
2019-02-18T13:03:21.180Z,46.75
2019-02-18T13:05:49.217Z,46.32
2019-02-18T13:08:17.277Z,46.22
2019-02-18T13:10:46.375Z,46.59
2019-02-18T13:13:14.468Z,46.95
2019-02-18T13:15:43.556Z,47.09
2019-02-18T13:18:11.395Z,46.86
2019-02-18T13:20:41.652Z,47.05
2019-02-18T13:23:09.622Z,47.05
2019-02-18T13:25:37.401Z,47.01
2019-02-18T13:28:08.592Z,46.99
2019-02-18T13:30:35.455Z,47.38
2019-02-18T13:33:03.833Z,47.40
2019-02-18T13:35:31.737Z,47.77
2019-02-18T13:37:59.464Z,48.21
2019-02-18T13:40:27.833Z,48.36
2019-02-18T13:42:55.619Z,48.69
2019-02-18T13:45:23.498Z,48.48
2019-02-18T13:47:51.636Z,49.02
2019-02-18T13:50:21.289Z,48.73
2019-02-18T13:52:50.845Z,48.34
2019-02-18T13:55:19.305Z,48.52
2019-02-18T13:57:47.205Z,48.87
2019-02-18T14:00:18.529Z,49.01
2019-02-18T14:02:46.825Z,49.38
2019-02-18T14:05:15.265Z,49.20
2019-02-18T14:07:43.198Z,49.52
2019-02-18T14:10:11.052Z,49.47
2019-02-18T14:12:40.535Z,49.28
2019-02-18T14:15:10.172Z,49.23
2019-02-18T14:17:38.331Z,48.81
2019-02-18T14:20:10.040Z,48.04
2019-02-18T14:22:39.128Z,48.58
2019-02-18T14:25:10.820Z,48.03
2019-02-18T14:27:39.349Z,48.41
2019-02-18T14:30:09.316Z,48.45
2019-02-18T14:32:39.135Z,48.42
2019-02-18T14:35:07.717Z,48.00
2019-02-18T14:37:38.945Z,47.94
2019-02-18T14:40:09.898Z,47.67
2019-02-18T14:42:39.241Z,47.53
2019-02-18T14:45:09.246Z,48.21
2019-02-18T14:47:37.453Z,48.52
2019-02-18T14:50:07.419Z,48.99
2019-02-18T14:52:35.892Z,49.17
2019-02-18T14:55:05.424Z,49.06
2019-02-18T14:57:37.356Z,48.86
2019-02-18T15:00:14.644Z,48.70
2019-02-18T15:02:43.815Z,48.97
2019-02-18T15:05:21.191Z,49.10
2019-02-18T15:07:51.074Z,49.24
2019-02-18T15:10:20.120Z,49.43
2019-02-18T15:12:51.521Z,49.43
2019-02-18T15:15:24.347Z,49.49
2019-02-18T15:17:56.560Z,49.72
2019-02-18T15:20:24.739Z,49.60
2019-02-18T15:22:52.840Z,49.73
2019-02-18T15:25:21.379Z,49.76
2019-02-18T15:27:49.464Z,49.58
2019-02-18T15:30:21.815Z,49.72
2019-02-18T15:32:56.149Z,49.90
2019-02-18T15:35:27.840Z,50.05
2019-02-18T15:37:58.073Z,50.13
2019-02-18T15:40:27.922Z,50.34
2019-02-18T15:42:58.226Z,50.56
2019-02-18T15:45:28.535Z,50.77
2019-02-18T15:48:13.326Z,51.03
2019-02-18T15:50:46.966Z,51.29
2019-02-18T15:53:19.632Z,51.49
2019-02-18T15:55:51.037Z,51.55
2019-02-18T15:58:27.136Z,51.55
2019-02-18T16:00:59.360Z,51.35
2019-02-18T16:03:50.773Z,51.80
2019-02-18T16:06:24.632Z,52.23
2019-02-18T16:08:54.815Z,52.53
2019-02-18T16:11:23.349Z,52.80
2019-02-18T16:13:52.531Z,52.91
2019-02-18T16:16:20.709Z,53.08
2019-02-18T16:18:52.863Z,52.96
2019-02-18T16:21:21.240Z,53.81
2019-02-18T16:23:52.944Z,54.17
2019-02-18T16:26:22.143Z,54.78
2019-02-18T16:28:50.262Z,55.28
2019-02-18T16:31:22.246Z,55.80
2019-02-18T16:33:50.847Z,56.34
2019-02-18T16:36:20.022Z,56.75
2019-02-18T16:38:52.783Z,57.13
2019-02-18T16:41:22.415Z,57.63
2019-02-18T16:43:52.933Z,58.13
2019-02-18T16:46:21.599Z,58.53
2019-02-18T16:48:50.498Z,58.94
2019-02-18T16:51:19.648Z,59.24
2019-02-18T16:53:49.668Z,59.54
2019-02-18T16:56:17.841Z,59.90
2019-02-18T16:58:46.286Z,60.21
2019-02-18T17:01:22.251Z,60.33
2019-02-18T17:03:54.185Z,60.55
2019-02-18T17:06:22.317Z,60.54
2019-02-18T17:08:54.035Z,60.80
2019-02-18T17:11:23.577Z,60.59
2019-02-18T17:13:52.573Z,60.04
2019-02-18T17:16:20.749Z,59.87
2019-02-18T17:18:49.978Z,60.26
2019-02-18T17:21:18.488Z,60.58
2019-02-18T17:23:46.953Z,60.88
2019-02-18T17:26:15.234Z,61.09
2019-02-18T17:28:46.342Z,60.73
2019-02-18T17:31:14.660Z,61.40
2019-02-18T17:33:43.105Z,61.86
2019-02-18T17:36:10.920Z,61.64
2019-02-18T17:38:39.417Z,61.73
2019-02-18T17:41:08.651Z,61.78
2019-02-18T17:43:36.646Z,61.70
2019-02-18T17:46:05.122Z,61.46
2019-02-18T17:48:33.552Z,61.17
2019-02-18T17:51:01.429Z,60.83
2019-02-18T17:53:29.550Z,60.72
2019-02-18T17:55:57.691Z,60.43
2019-02-18T17:58:26.132Z,59.78
2019-02-18T18:00:54.622Z,59.72
2019-02-18T18:03:22.517Z,59.56
2019-02-18T18:05:50.751Z,59.76
2019-02-18T18:08:18.541Z,60.09
2019-02-18T18:10:46.288Z,60.35
2019-02-18T18:13:14.527Z,60.58
2019-02-18T18:15:42.441Z,60.73
2019-02-18T18:18:11.129Z,60.94
2019-02-18T18:20:40.101Z,60.91
2019-02-18T18:23:07.841Z,60.88
2019-02-18T18:25:35.703Z,60.86
2019-02-18T18:28:03.498Z,60.95
2019-02-18T18:30:31.673Z,61.11
2019-02-18T18:33:00.870Z,61.39
2019-02-18T18:35:29.407Z,61.68
2019-02-18T18:37:59.602Z,61.97
2019-02-18T18:40:28.924Z,62.05
2019-02-18T18:42:59.600Z,62.03
2019-02-18T18:45:27.561Z,62.09
2019-02-18T18:47:55.468Z,62.30
2019-02-18T18:50:23.656Z,62.79
2019-02-18T18:52:51.429Z,63.16
2019-02-18T18:55:19.455Z,63.45
2019-02-18T18:57:47.684Z,63.64
2019-02-18T19:00:18.521Z,63.50
2019-02-18T19:02:46.746Z,63.28
2019-02-18T19:05:14.627Z,63.13
2019-02-18T19:07:43.574Z,63.10
2019-02-18T19:10:11.872Z,63.10
2019-02-18T19:12:39.865Z,63.08
2019-02-18T19:15:08.966Z,62.99
2019-02-18T19:17:37.600Z,63.00
2019-02-18T19:20:06.546Z,62.98
2019-02-18T19:22:35.074Z,62.94
2019-02-18T19:25:04.420Z,62.82
2019-02-18T19:27:32.512Z,62.85
2019-02-18T19:30:01.088Z,62.94
2019-02-18T19:32:29.162Z,63.03
2019-02-18T19:34:57.373Z,63.05
2019-02-18T19:37:25.260Z,62.99
2019-02-18T19:39:53.326Z,62.87
2019-02-18T19:42:22.086Z,62.89
2019-02-18T19:44:49.947Z,62.84
2019-02-18T19:47:17.913Z,62.91
2019-02-18T19:49:46.346Z,63.01
2019-02-18T19:52:14.910Z,63.08
2019-02-18T19:54:45.376Z,63.08
2019-02-18T19:57:14.349Z,62.99
2019-02-18T19:59:42.591Z,63.07
2019-02-18T20:02:12.955Z,63.23
2019-02-18T20:04:41.173Z,63.39
2019-02-18T20:07:09.767Z,63.61
2019-02-18T20:09:38.612Z,63.60
2019-02-18T20:12:06.686Z,63.29
2019-02-18T20:14:35.520Z,63.02
2019-02-18T20:17:05.293Z,62.85
2019-02-18T20:19:33.200Z,62.80
2019-02-18T20:22:03.390Z,62.70
2019-02-18T20:24:31.794Z,62.64
2019-02-18T20:27:00.827Z,62.68
2019-02-18T20:29:29.451Z,62.66
2019-02-18T20:31:58.437Z,62.69
2019-02-18T20:34:27.186Z,62.83
2019-02-18T20:36:55.414Z,62.98
2019-02-18T20:39:24.177Z,63.08
2019-02-18T20:41:55.559Z,63.15
2019-02-18T20:44:23.410Z,63.16
2019-02-18T20:46:53.403Z,63.19
2019-02-18T20:49:22.067Z,63.28
2019-02-18T20:51:50.367Z,63.44
2019-02-18T20:54:18.539Z,63.60
2019-02-18T20:56:46.877Z,63.80
2019-02-18T20:59:15.520Z,63.93
2019-02-18T21:01:43.951Z,63.90
2019-02-18T21:04:12.080Z,63.71
2019-02-18T21:06:41.399Z,63.59
2019-02-18T21:09:09.835Z,63.42
2019-02-18T21:11:38.002Z,63.44
2019-02-18T21:14:06.693Z,63.44
2019-02-18T21:16:35.185Z,63.38
2019-02-18T21:19:08.387Z,63.48
2019-02-18T21:21:37.803Z,63.55
2019-02-18T21:24:08.254Z,63.70
2019-02-18T21:26:36.803Z,63.77
2019-02-18T21:29:07.794Z,63.94
2019-02-18T21:31:38.728Z,63.89
2019-02-18T21:34:09.625Z,64.16
2019-02-18T21:36:37.690Z,64.41
2019-02-18T21:39:15.110Z,64.63
2019-02-18T21:41:52.809Z,64.95
2019-02-18T21:44:25.417Z,65.14
2019-02-18T21:46:51.132Z,65.26
2019-02-18T21:49:19.014Z,65.50
2019-02-18T21:51:48.865Z,65.83
2019-02-18T21:54:17.898Z,66.02
2019-02-18T21:56:46.618Z,66.25
2019-02-18T21:59:14.874Z,66.43
2019-02-18T22:01:42.736Z,66.69
2019-02-18T22:04:15.258Z,66.97
2019-02-18T22:06:43.697Z,67.20
2019-02-18T22:09:12.111Z,67.36
2019-02-18T22:11:40.177Z,67.71
2019-02-18T22:14:08.988Z,67.93
2019-02-18T22:16:38.443Z,67.96
2019-02-18T22:19:07.081Z,68.40
2019-02-18T22:21:35.541Z,68.71
2019-02-18T22:24:06.554Z,69.04
2019-02-18T22:26:34.999Z,69.46
2019-02-18T22:31:31.630Z,70.30
2019-02-18T22:33:59.632Z,70.36
2019-02-18T22:36:29.900Z,70.37
2019-02-18T22:38:58.964Z,70.42
2019-02-18T22:41:26.953Z,70.55
2019-02-18T22:43:55.194Z,70.71
2019-02-18T22:46:24.865Z,70.76
2019-02-18T22:48:54.103Z,70.73
2019-02-18T22:51:22.740Z,70.70
2019-02-18T22:53:52.346Z,70.67
2019-02-18T22:56:20.176Z,70.65
2019-02-18T22:58:51.555Z,70.72
2019-02-18T23:01:24.283Z,70.89
2019-02-18T23:03:53.878Z,70.94
2019-02-18T23:06:22.831Z,71.16
2019-02-18T23:08:52.721Z,71.30
2019-02-18T23:11:27.163Z,71.26
2019-02-18T23:13:56.252Z,71.07
2019-02-18T23:16:25.140Z,71.38
2019-02-18T23:18:54.227Z,71.50
2019-02-18T23:21:22.099Z,71.65
2019-02-18T23:23:50.896Z,72.00
2019-02-18T23:26:23.789Z,72.30
2019-02-18T23:28:53.147Z,72.38
2019-02-18T23:31:21.552Z,72.58
2019-02-18T23:33:50.037Z,72.88
2019-02-18T23:36:18.241Z,73.12
2019-02-18T23:38:47.330Z,73.35
2019-02-18T23:41:15.379Z,73.58
2019-02-18T23:43:44.287Z,73.85
2019-02-18T23:46:13.601Z,73.98
2019-02-18T23:48:41.780Z,74.42
2019-02-18T23:51:11.517Z,74.66
2019-02-18T23:53:39.500Z,74.75
2019-02-18T23:56:08.664Z,74.84
2019-02-18T23:58:37.666Z,75.02
